createdAt,value
2023-02-23T00:01:36.306Z,43.53
2023-02-23T00:04:03.729Z,45.58
2023-02-23T00:06:32.622Z,42.97
2023-02-23T00:09:01.224Z,47.53
2023-02-23T00:11:28.547Z,45.88
2023-02-23T00:13:56.901Z,48.33
2023-02-23T00:16:24.992Z,45.88
2023-02-23T00:18:54.163Z,47.28
2023-02-23T00:21:26.531Z,49.60
2023-02-23T00:23:58.713Z,49.05
2023-02-23T00:26:30.658Z,45.28
2023-02-23T00:28:57.702Z,46.50
2023-02-23T00:31:25.659Z,48.65
2023-02-23T00:33:54.261Z,49.95
2023-02-23T00:36:23.365Z,51.38
2023-02-23T00:38:53.711Z,52.13
2023-02-23T00:41:23.993Z,54.90
2023-02-23T00:43:50.602Z,52.70
2023-02-23T00:46:19.006Z,51.13
2023-02-23T00:48:45.982Z,49.58
2023-02-23T00:51:13.147Z,51.60
2023-02-23T00:53:40.406Z,51.90
2023-02-23T00:56:09.088Z,55.20
2023-02-23T00:58:35.836Z,53.30
2023-02-23T01:01:02.468Z,50.97
2023-02-23T01:03:30.181Z,51.05
2023-02-23T01:06:01.174Z,55.20
2023-02-23T01:10:56.812Z,49.45
2023-02-23T01:13:24.763Z,52.47
2023-02-23T01:15:52.302Z,56.78
2023-02-23T01:18:20.369Z,55.88
2023-02-23T01:20:47.194Z,54.40
2023-02-23T01:23:14.789Z,54.55
2023-02-23T01:25:43.140Z,51.72
2023-02-23T01:28:10.913Z,51.33
2023-02-23T01:30:37.778Z,52.85
2023-02-23T01:33:04.882Z,50.13
2023-02-23T01:35:33.233Z,51.42
2023-02-23T01:38:00.078Z,51.25
2023-02-23T01:40:30.891Z,46.50
2023-02-23T01:43:12.272Z,48.50
2023-02-23T01:45:40.396Z,47.10
2023-02-23T01:48:12.561Z,46.67
2023-02-23T01:50:57.663Z,44.90
2023-02-23T01:53:25.894Z,44.75
2023-02-23T01:56:11.898Z,47.88
2023-02-23T01:58:39.692Z,49.53
2023-02-23T02:01:06.327Z,45.95
2023-02-23T02:03:48.893Z,49.85
2023-02-23T02:06:17.740Z,48.17
2023-02-23T02:08:47.497Z,47.97
2023-02-23T02:11:26.050Z,53.70
2023-02-23T02:13:55.129Z,52.97
2023-02-23T02:16:43.094Z,53.25
2023-02-23T02:19:48.689Z,51.35
2023-02-23T02:22:29.594Z,48.65
2023-02-23T02:25:24.727Z,48.70
2023-02-23T02:28:30.493Z,49.25
2023-02-23T02:31:02.967Z,53.42
2023-02-23T02:33:55.552Z,48.90
2023-02-23T02:36:47.516Z,53.92
2023-02-23T02:39:53.547Z,52.50
2023-02-23T02:42:31.015Z,51.25
2023-02-23T02:45:14.129Z,50.88
2023-02-23T02:47:55.091Z,52.22
2023-02-23T02:50:37.201Z,52.75
2023-02-23T02:53:16.723Z,49.38
2023-02-23T02:55:44.268Z,49.35
2023-02-23T02:58:12.432Z,50.75
2023-02-23T03:01:00.113Z,52.28
2023-02-23T03:04:03.705Z,51.35
2023-02-23T03:07:02.458Z,47.03
2023-02-23T03:10:09.979Z,50.83
2023-02-23T03:13:04.737Z,52.05
2023-02-23T03:16:08.961Z,55.03
2023-02-23T03:19:23.224Z,50.22
2023-02-23T03:22:11.419Z,54.67
2023-02-23T03:24:58.672Z,54.80
2023-02-23T03:27:53.365Z,53.75
2023-02-23T03:30:52.801Z,53.85
2023-02-23T03:33:45.585Z,55.47
2023-02-23T03:36:38.982Z,55.67
2023-02-23T03:39:45.214Z,54.22
2023-02-23T03:42:35.012Z,53.58
2023-02-23T03:45:25.275Z,57.85
2023-02-23T03:48:12.379Z,56.17
2023-02-23T03:51:00.897Z,52.83
2023-02-23T03:53:52.723Z,53.58
2023-02-23T03:56:39.138Z,54.88
2023-02-23T03:59:25.002Z,55.67
2023-02-23T04:02:12.262Z,52.88
2023-02-23T04:04:58.099Z,54.72
2023-02-23T04:07:43.689Z,55.15
2023-02-23T04:10:29.484Z,57.50
2023-02-23T04:13:15.507Z,54.90
2023-02-23T04:15:52.635Z,55.33
2023-02-23T04:18:34.279Z,55.47
2023-02-23T04:21:01.834Z,54.97
2023-02-23T04:23:28.753Z,58.13
2023-02-23T04:25:56.009Z,57.20
2023-02-23T04:28:24.028Z,59.80
2023-02-23T04:30:52.448Z,58.00
2023-02-23T04:33:19.655Z,54.33
2023-02-23T04:35:46.330Z,55.03
2023-02-23T04:38:12.824Z,58.25
2023-02-23T04:40:39.366Z,58.75
2023-02-23T04:43:05.954Z,55.97
2023-02-23T04:45:32.478Z,56.65
2023-02-23T04:47:58.958Z,58.50
2023-02-23T04:50:25.469Z,57.65
2023-02-23T04:52:53.050Z,54.88
2023-02-23T04:55:21.961Z,54.35
2023-02-23T04:57:48.660Z,53.00
2023-02-23T05:00:16.406Z,51.83
2023-02-23T05:02:43.078Z,54.10
2023-02-23T05:05:10.347Z,54.35
2023-02-23T05:07:37.311Z,52.72
2023-02-23T05:10:05.497Z,55.13
2023-02-23T05:12:32.342Z,52.70
2023-02-23T05:14:59.939Z,54.92
2023-02-23T05:17:26.500Z,55.55
2023-02-23T05:19:53.620Z,55.10
2023-02-23T05:22:20.261Z,54.10
2023-02-23T05:24:48.564Z,54.88
2023-02-23T05:27:15.753Z,53.45
2023-02-23T05:29:42.338Z,54.97
2023-02-23T05:32:08.999Z,53.40
2023-02-23T05:34:35.725Z,53.25
2023-02-23T05:37:02.439Z,58.03
2023-02-23T05:39:28.963Z,56.47
2023-02-23T05:41:55.549Z,53.65
2023-02-23T05:44:22.121Z,55.88
2023-02-23T05:46:48.737Z,51.55
2023-02-23T05:49:15.318Z,54.47
2023-02-23T05:51:41.901Z,56.03
2023-02-23T05:54:09.432Z,57.45
2023-02-23T05:56:36.545Z,52.72
2023-02-23T05:59:05.537Z,58.25
2023-02-23T06:01:32.717Z,56.42
2023-02-23T06:03:59.457Z,55.60
2023-02-23T06:06:26.569Z,57.65
2023-02-23T06:08:53.381Z,60.00
2023-02-23T06:11:20.522Z,62.15
2023-02-23T06:13:47.938Z,64.70
2023-02-23T06:16:14.638Z,60.40
2023-02-23T06:18:41.169Z,62.92
2023-02-23T06:21:07.664Z,60.10
2023-02-23T06:23:34.188Z,61.78
2023-02-23T06:26:00.939Z,61.25
2023-02-23T06:28:28.479Z,62.05
2023-02-23T06:30:56.010Z,58.95
2023-02-23T06:33:23.286Z,61.38
2023-02-23T06:35:49.921Z,63.17
2023-02-23T06:38:16.598Z,63.45
2023-02-23T06:40:43.349Z,63.63
2023-02-23T06:43:10.168Z,65.30
2023-02-23T06:45:36.788Z,63.63
2023-02-23T06:48:04.182Z,63.67
2023-02-23T06:50:31.000Z,65.07
2023-02-23T06:52:57.743Z,62.15
2023-02-23T06:55:24.602Z,63.78
2023-02-23T06:57:53.451Z,63.85
2023-02-23T07:00:20.597Z,63.65
2023-02-23T07:02:47.220Z,63.63
2023-02-23T07:05:13.889Z,62.80
2023-02-23T07:07:40.410Z,62.85
2023-02-23T07:10:07.869Z,60.75
2023-02-23T07:12:34.434Z,62.47
2023-02-23T07:15:00.963Z,60.75
2023-02-23T07:17:29.879Z,62.15
2023-02-23T07:19:58.511Z,61.55
2023-02-23T07:22:27.853Z,61.05
2023-02-23T07:24:54.344Z,62.80
2023-02-23T07:27:20.923Z,63.20
2023-02-23T07:29:47.414Z,68.40
2023-02-23T07:32:14.048Z,64.10
2023-02-23T07:34:40.725Z,64.85
2023-02-23T07:37:07.197Z,64.43
2023-02-23T07:39:33.724Z,63.90
2023-02-23T07:42:00.262Z,63.00
2023-02-23T07:44:26.814Z,63.42
2023-02-23T07:46:53.375Z,65.05
2023-02-23T07:49:19.865Z,64.38
2023-02-23T07:51:46.962Z,62.22
2023-02-23T07:54:13.771Z,66.80
2023-02-23T07:56:40.390Z,62.35
2023-02-23T07:59:06.908Z,59.53
2023-02-23T08:01:33.613Z,64.80
2023-02-23T08:04:00.932Z,59.67
2023-02-23T08:06:27.528Z,64.45
2023-02-23T08:08:54.133Z,60.67
2023-02-23T08:11:20.965Z,63.65
2023-02-23T08:13:47.604Z,60.70
2023-02-23T08:16:16.466Z,59.60
2023-02-23T08:18:43.041Z,57.38
2023-02-23T08:21:09.580Z,56.38
2023-02-23T08:23:36.194Z,58.60
2023-02-23T08:26:04.177Z,54.50
2023-02-23T08:28:31.169Z,54.25
2023-02-23T08:30:59.354Z,53.05
2023-02-23T08:33:26.324Z,52.35
2023-02-23T08:35:53.689Z,56.50
2023-02-23T08:38:20.428Z,55.63
2023-02-23T08:40:46.968Z,52.28
2023-02-23T08:43:13.518Z,54.45
2023-02-23T08:45:40.047Z,51.63
2023-02-23T08:48:07.588Z,54.97
2023-02-23T08:50:34.294Z,51.22
2023-02-23T08:53:00.793Z,51.40
2023-02-23T08:55:27.355Z,53.42
2023-02-23T08:57:53.851Z,55.70
2023-02-23T09:00:20.961Z,52.03
2023-02-23T09:02:48.313Z,51.60
2023-02-23T09:05:15.856Z,49.08
2023-02-23T09:07:45.282Z,47.47
2023-02-23T09:10:14.034Z,49.20
2023-02-23T09:12:40.883Z,50.33
2023-02-23T09:15:08.348Z,52.28
2023-02-23T09:17:35.029Z,51.70
2023-02-23T09:20:02.143Z,52.30
2023-02-23T09:22:28.649Z,50.60
2023-02-23T09:24:55.141Z,52.20
2023-02-23T09:27:21.651Z,51.17
2023-02-23T09:29:48.286Z,51.05
2023-02-23T09:32:14.938Z,50.63
2023-02-23T09:34:41.529Z,46.83
2023-02-23T09:37:08.709Z,45.78
2023-02-23T09:39:38.519Z,45.28
2023-02-23T09:42:11.621Z,46.08
2023-02-23T09:44:48.586Z,44.88
2023-02-23T09:47:33.867Z,40.97
2023-02-23T09:50:04.057Z,42.22
2023-02-23T09:52:38.966Z,43.05
2023-02-23T09:55:06.356Z,42.35
2023-02-23T09:57:41.381Z,46.25
2023-02-23T10:00:17.299Z,47.88
2023-02-23T10:03:04.497Z,49.85
2023-02-23T10:05:34.090Z,47.50
2023-02-23T10:08:09.028Z,45.95
2023-02-23T10:10:47.906Z,47.92
2023-02-23T10:13:21.315Z,45.08
2023-02-23T10:15:57.646Z,43.45
2023-02-23T10:18:46.131Z,42.25
2023-02-23T10:21:30.361Z,43.30
2023-02-23T10:24:13.204Z,43.20
2023-02-23T10:26:47.299Z,40.22
2023-02-23T10:29:25.580Z,41.53
2023-02-23T10:31:58.426Z,41.90
2023-02-23T10:34:27.834Z,41.72
2023-02-23T10:37:02.653Z,38.72
2023-02-23T10:39:30.930Z,38.55
2023-02-23T10:42:04.034Z,36.63
2023-02-23T10:44:30.794Z,34.55
2023-02-23T10:47:05.571Z,33.35
2023-02-23T10:49:40.715Z,33.47
2023-02-23T10:52:13.528Z,33.85
2023-02-23T10:54:47.555Z,34.05
2023-02-23T10:57:26.847Z,32.17
2023-02-23T11:00:17.033Z,31.58
2023-02-23T11:02:44.912Z,32.65
2023-02-23T11:05:46.575Z,33.42
2023-02-23T11:08:29.426Z,36.35
2023-02-23T11:11:05.279Z,34.35
2023-02-23T11:13:39.112Z,34.55
2023-02-23T11:16:10.441Z,35.15
2023-02-23T11:18:38.200Z,35.90
2023-02-23T11:21:10.973Z,35.20
2023-02-23T11:23:39.808Z,35.83
2023-02-23T11:26:23.103Z,33.22
2023-02-23T11:28:53.920Z,33.47
2023-02-23T11:31:22.849Z,30.98
2023-02-23T11:33:50.124Z,29.52
2023-02-23T11:36:28.826Z,30.17
2023-02-23T11:39:20.058Z,32.17
2023-02-23T11:41:46.629Z,29.98
2023-02-23T11:44:23.486Z,27.25
2023-02-23T11:46:50.920Z,28.35
2023-02-23T11:49:29.891Z,26.00
2023-02-23T11:51:56.459Z,25.98
2023-02-23T11:54:30.056Z,27.70
2023-02-23T11:56:58.142Z,28.08
2023-02-23T11:59:37.320Z,27.90
2023-02-23T12:02:28.100Z,26.67
2023-02-23T12:05:06.444Z,28.80
2023-02-23T12:07:41.917Z,28.50
2023-02-23T12:10:24.910Z,28.90
2023-02-23T12:13:12.789Z,27.15
2023-02-23T12:15:56.429Z,29.83
2023-02-23T12:18:59.687Z,30.95
2023-02-23T12:21:37.167Z,31.10
2023-02-23T12:24:19.025Z,27.85
2023-02-23T12:26:53.023Z,27.77
2023-02-23T12:29:25.028Z,26.92
2023-02-23T12:31:57.906Z,24.55
2023-02-23T12:34:24.449Z,25.55
2023-02-23T12:36:55.633Z,25.10
2023-02-23T12:39:32.673Z,24.38
2023-02-23T12:42:17.352Z,24.30
2023-02-23T12:44:48.749Z,23.10
2023-02-23T12:47:34.064Z,24.10
2023-02-23T12:50:14.097Z,19.85
2023-02-23T12:52:49.550Z,20.37
2023-02-23T12:55:16.879Z,20.75
2023-02-23T12:57:59.777Z,18.88
2023-02-23T13:00:52.395Z,19.00
2023-02-23T13:03:38.010Z,22.42
2023-02-23T13:06:25.560Z,19.58
2023-02-23T13:09:27.706Z,20.80
2023-02-23T13:11:54.158Z,21.35
2023-02-23T13:14:23.720Z,23.52
2023-02-23T13:17:25.799Z,21.20
2023-02-23T13:20:04.208Z,22.02
2023-02-23T13:22:48.498Z,21.58
2023-02-23T13:25:28.028Z,22.00
2023-02-23T13:28:00.206Z,20.65
2023-02-23T13:30:32.378Z,20.98
2023-02-23T13:33:08.487Z,20.67
2023-02-23T13:35:35.875Z,22.27
2023-02-23T13:38:12.957Z,22.30
2023-02-23T13:40:48.829Z,21.65
2023-02-23T13:43:23.190Z,20.38
2023-02-23T13:46:11.655Z,22.23
2023-02-23T13:48:59.292Z,20.50
2023-02-23T13:51:33.021Z,21.52
2023-02-23T13:54:06.578Z,21.23
2023-02-23T13:56:41.402Z,23.42
2023-02-23T13:59:11.960Z,23.58
2023-02-23T14:01:43.772Z,21.45
2023-02-23T14:04:21.708Z,20.25
2023-02-23T14:07:11.423Z,20.48
2023-02-23T14:09:42.729Z,21.58
2023-02-23T14:12:42.805Z,20.90
2023-02-23T14:15:40.755Z,18.70
2023-02-23T14:18:20.792Z,18.98
2023-02-23T14:21:25.800Z,16.00
2023-02-23T14:24:21.302Z,19.02
2023-02-23T14:27:30.836Z,17.25
2023-02-23T14:30:11.397Z,18.48
2023-02-23T14:32:43.365Z,19.38
2023-02-23T14:35:36.608Z,18.08
2023-02-23T14:38:38.762Z,19.27
2023-02-23T14:41:12.792Z,17.95
2023-02-23T14:43:42.364Z,17.30
2023-02-23T14:46:16.996Z,18.65
2023-02-23T14:48:54.923Z,17.15
2023-02-23T14:51:26.295Z,17.75
2023-02-23T14:53:55.469Z,18.63
2023-02-23T14:56:32.529Z,17.02
2023-02-23T14:59:07.226Z,19.23
2023-02-23T15:01:38.385Z,17.80
2023-02-23T15:04:09.434Z,18.08
2023-02-23T15:09:02.873Z,17.52
2023-02-23T15:11:31.686Z,17.85
2023-02-23T15:13:58.917Z,16.42
2023-02-23T15:16:31.984Z,16.33
2023-02-23T15:18:59.362Z,17.75
2023-02-23T15:21:25.973Z,19.25
2023-02-23T15:24:02.341Z,18.65
2023-02-23T15:26:33.137Z,17.75
2023-02-23T15:29:06.820Z,17.85
2023-02-23T15:31:34.942Z,18.90
2023-02-23T15:34:01.616Z,22.73
2023-02-23T15:36:30.848Z,20.10
2023-02-23T15:38:59.902Z,18.92
2023-02-23T15:41:33.132Z,19.88
2023-02-23T15:44:14.707Z,20.38
2023-02-23T15:46:42.294Z,19.58
2023-02-23T15:49:12.457Z,18.80
2023-02-23T15:51:49.014Z,18.88
2023-02-23T15:54:29.839Z,18.75
2023-02-23T15:56:58.335Z,20.67
2023-02-23T15:59:30.903Z,20.75
2023-02-23T16:02:00.077Z,20.92
2023-02-23T16:04:32.457Z,21.73
2023-02-23T16:07:23.047Z,22.85
2023-02-23T16:10:22.975Z,20.92
2023-02-23T16:12:52.471Z,20.10
2023-02-23T16:15:29.519Z,22.45
2023-02-23T16:18:04.982Z,20.50
2023-02-23T16:20:35.180Z,21.63
2023-02-23T16:23:03.091Z,21.95
2023-02-23T16:25:30.557Z,20.73
2023-02-23T16:28:01.495Z,22.15
2023-02-23T16:33:12.525Z,22.23
2023-02-23T16:35:45.342Z,23.02
2023-02-23T16:38:28.329Z,21.52
2023-02-23T16:40:55.052Z,22.95
2023-02-23T16:43:21.696Z,23.65
2023-02-23T16:45:48.530Z,24.17
2023-02-23T16:48:16.707Z,23.00
2023-02-23T16:50:43.405Z,21.92
2023-02-23T16:53:11.242Z,22.75
2023-02-23T16:55:52.819Z,21.42
2023-02-23T16:58:26.160Z,24.75
2023-02-23T17:00:53.667Z,23.35
2023-02-23T17:03:24.497Z,21.88
2023-02-23T17:05:51.548Z,19.70
2023-02-23T17:08:18.169Z,18.83
2023-02-23T17:10:47.238Z,19.83
2023-02-23T17:13:18.323Z,19.23
2023-02-23T17:15:48.184Z,17.50
2023-02-23T17:18:14.742Z,18.00
2023-02-23T17:20:41.368Z,19.75
2023-02-23T17:23:07.975Z,18.85
2023-02-23T17:25:34.635Z,17.45
2023-02-23T17:28:01.894Z,17.33
2023-02-23T17:30:29.138Z,17.83
2023-02-23T17:32:57.960Z,18.52
2023-02-23T17:35:25.920Z,18.17
2023-02-23T17:37:52.735Z,17.30
2023-02-23T17:40:32.689Z,16.98
2023-02-23T17:43:01.034Z,16.88
2023-02-23T17:45:28.534Z,17.30
2023-02-23T17:47:56.237Z,19.48
2023-02-23T17:50:23.271Z,18.40
2023-02-23T17:52:51.104Z,17.73
2023-02-23T17:55:18.466Z,18.60
2023-02-23T17:57:46.068Z,18.30
2023-02-23T18:00:14.660Z,17.92
2023-02-23T18:02:43.106Z,19.55
2023-02-23T18:05:10.819Z,16.30
2023-02-23T18:07:37.674Z,17.58
2023-02-23T18:10:05.567Z,17.55
2023-02-23T18:12:32.341Z,20.42
2023-02-23T18:14:59.435Z,20.27
2023-02-23T18:17:26.308Z,20.77
2023-02-23T18:19:52.964Z,17.20
2023-02-23T18:22:19.783Z,19.52
2023-02-23T18:24:46.297Z,18.25
2023-02-23T18:27:13.039Z,18.13
2023-02-23T18:29:39.635Z,19.90
2023-02-23T18:32:07.876Z,21.25
2023-02-23T18:34:35.376Z,18.92
2023-02-23T18:37:03.467Z,19.40
2023-02-23T18:39:31.683Z,18.48
2023-02-23T18:41:59.714Z,17.30
2023-02-23T18:44:26.913Z,18.15
2023-02-23T18:46:54.910Z,18.30
2023-02-23T18:49:23.673Z,18.98
2023-02-23T18:51:50.254Z,17.40
2023-02-23T18:54:16.898Z,16.65
2023-02-23T18:56:45.053Z,18.20
2023-02-23T18:59:12.209Z,19.05
2023-02-23T19:01:38.952Z,16.30
2023-02-23T19:04:07.422Z,17.02
2023-02-23T19:06:38.932Z,18.45
2023-02-23T19:09:12.361Z,17.95
2023-02-23T19:11:39.547Z,16.85
2023-02-23T19:14:11.634Z,18.20
2023-02-23T19:16:38.518Z,17.10
2023-02-23T19:19:08.695Z,15.60
2023-02-23T19:21:36.266Z,15.90
2023-02-23T19:24:04.164Z,16.55
2023-02-23T19:26:31.888Z,16.98
2023-02-23T19:28:58.665Z,16.30
2023-02-23T19:31:26.485Z,16.13
2023-02-23T19:33:54.772Z,16.80
2023-02-23T19:36:23.258Z,15.57
2023-02-23T19:38:49.859Z,16.45
2023-02-23T19:41:19.726Z,16.05
2023-02-23T19:43:46.570Z,15.10
2023-02-23T19:46:17.100Z,16.88
2023-02-23T19:48:45.661Z,16.88
2023-02-23T19:51:13.084Z,19.73
2023-02-23T19:53:40.148Z,18.98
2023-02-23T19:56:14.446Z,18.52
2023-02-23T19:58:44.959Z,17.58
2023-02-23T20:01:16.765Z,17.52
2023-02-23T20:03:45.034Z,17.50
2023-02-23T20:06:13.664Z,17.88
2023-02-23T20:08:41.702Z,19.50
2023-02-23T20:11:08.306Z,18.13
2023-02-23T20:13:35.432Z,19.23
2023-02-23T20:16:02.249Z,18.92
2023-02-23T20:18:29.159Z,18.63
2023-02-23T20:20:55.830Z,19.02
2023-02-23T20:23:22.386Z,19.63
2023-02-23T20:25:48.902Z,19.88
2023-02-23T20:28:15.669Z,18.45
2023-02-23T20:30:46.908Z,19.85
2023-02-23T20:33:15.243Z,17.98
2023-02-23T20:35:42.538Z,19.17
2023-02-23T20:38:09.348Z,17.73
2023-02-23T20:40:35.928Z,17.90
2023-02-23T20:43:02.498Z,19.02
2023-02-23T20:45:29.069Z,18.27
2023-02-23T20:47:56.247Z,20.58
2023-02-23T20:50:25.651Z,19.35
2023-02-23T20:52:52.241Z,20.15
2023-02-23T20:55:18.843Z,19.92
2023-02-23T20:57:47.096Z,19.58
2023-02-23T21:00:20.438Z,19.40
2023-02-23T21:02:47.023Z,19.38
2023-02-23T21:05:13.609Z,19.45
2023-02-23T21:07:40.495Z,20.80
2023-02-23T21:10:08.662Z,22.00
2023-02-23T21:12:35.500Z,19.65
2023-02-23T21:15:04.689Z,16.17
2023-02-23T21:17:31.328Z,13.77
2023-02-23T21:19:57.896Z,12.18
2023-02-23T21:22:27.072Z,10.68
2023-02-23T21:24:53.675Z,10.02
2023-02-23T21:27:20.201Z,9.18
2023-02-23T21:29:46.686Z,8.65
2023-02-23T21:32:14.284Z,8.38
2023-02-23T21:34:41.136Z,8.55
2023-02-23T21:37:07.637Z,7.07
2023-02-23T21:39:34.366Z,7.70
2023-02-23T21:42:01.280Z,7.45
2023-02-23T21:44:28.036Z,7.55
2023-02-23T21:46:54.726Z,7.07
2023-02-23T21:49:21.227Z,7.55
2023-02-23T21:51:47.817Z,7.05
2023-02-23T21:54:15.749Z,8.15
2023-02-23T21:56:42.314Z,7.90
2023-02-23T21:59:08.975Z,7.32
2023-02-23T22:01:38.215Z,7.93
2023-02-23T22:04:06.342Z,7.75
2023-02-23T22:06:39.926Z,6.55
2023-02-23T22:09:11.048Z,7.15
2023-02-23T22:11:38.873Z,8.27
2023-02-23T22:14:10.429Z,7.93
2023-02-23T22:16:39.563Z,7.97
2023-02-23T22:19:07.060Z,7.30
2023-02-23T22:21:36.933Z,6.53
2023-02-23T22:24:05.500Z,7.03
2023-02-23T22:26:37.385Z,7.78
2023-02-23T22:29:05.609Z,6.43
2023-02-23T22:31:32.498Z,8.15
2023-02-23T22:33:59.079Z,8.30
2023-02-23T22:36:25.609Z,7.65
2023-02-23T22:38:52.495Z,7.45
2023-02-23T22:41:19.411Z,9.43
2023-02-23T22:43:46.542Z,9.82
2023-02-23T22:46:14.534Z,9.80
2023-02-23T22:48:44.945Z,9.43
2023-02-23T22:51:13.138Z,8.63
2023-02-23T22:53:39.752Z,9.40
2023-02-23T22:56:06.830Z,8.88
2023-02-23T22:58:33.315Z,8.80
2023-02-23T23:01:03.089Z,8.60
2023-02-23T23:03:40.659Z,9.98
2023-02-23T23:06:10.099Z,7.85
2023-02-23T23:08:40.116Z,7.53
2023-02-23T23:11:12.260Z,9.77
2023-02-23T23:13:44.702Z,9.98
2023-02-23T23:16:16.881Z,7.20
2023-02-23T23:18:56.774Z,6.05
2023-02-23T23:21:24.892Z,8.07
2023-02-23T23:23:52.924Z,5.82
2023-02-23T23:26:21.028Z,6.60
2023-02-23T23:28:53.102Z,7.05
2023-02-23T23:31:22.767Z,5.95
2023-02-23T23:33:51.648Z,5.70
2023-02-23T23:36:22.065Z,5.57
2023-02-23T23:38:49.725Z,5.13
2023-02-23T23:41:17.593Z,4.05
2023-02-23T23:43:48.669Z,5.03
2023-02-23T23:48:44.308Z,5.03
2023-02-23T23:51:11.479Z,4.68
2023-02-23T23:53:38.120Z,5.10
2023-02-23T23:56:09.211Z,4.38
2023-02-23T23:58:35.803Z,5.85
